createdAt,value
2022-07-29T00:01:46.875Z,20.48
2022-07-29T00:04:16.704Z,20.48
2022-07-29T00:06:46.468Z,20.40
2022-07-29T00:09:16.768Z,20.63
2022-07-29T00:11:46.182Z,20.94
2022-07-29T00:14:16.373Z,20.99
2022-07-29T00:16:46.085Z,21.20
2022-07-29T00:19:15.838Z,21.29
2022-07-29T00:21:45.924Z,21.44
2022-07-29T00:24:15.851Z,21.00
2022-07-29T00:26:46.166Z,21.78
2022-07-29T00:29:33.548Z,21.37
2022-07-29T00:32:05.226Z,21.20
2022-07-29T00:34:52.644Z,20.90
2022-07-29T00:37:22.088Z,21.21
2022-07-29T00:39:53.518Z,21.31
2022-07-29T00:42:22.947Z,21.47
2022-07-29T00:44:52.764Z,21.51
2022-07-29T00:47:22.596Z,21.61
2022-07-29T00:49:51.988Z,21.44
2022-07-29T00:52:21.545Z,21.28
2022-07-29T00:54:51.098Z,21.17
2022-07-29T00:57:20.381Z,21.40
2022-07-29T00:59:49.877Z,21.34
2022-07-29T01:02:19.520Z,21.17
2022-07-29T01:04:49.099Z,21.25
2022-07-29T01:07:20.667Z,21.14
2022-07-29T01:09:50.272Z,21.22
2022-07-29T01:12:30.092Z,21.15
2022-07-29T01:15:00.666Z,21.27
2022-07-29T01:17:59.455Z,21.19
2022-07-29T01:21:10.989Z,21.27
2022-07-29T01:24:10.704Z,21.61
2022-07-29T01:27:15.704Z,22.18
2022-07-29T01:30:01.974Z,22.46
2022-07-29T01:32:41.818Z,22.82
2022-07-29T01:35:24.344Z,22.46
2022-07-29T01:38:21.598Z,22.83
2022-07-29T01:41:12.059Z,22.81
2022-07-29T01:44:24.485Z,22.62
2022-07-29T01:47:01.249Z,22.44
2022-07-29T01:49:41.595Z,22.81
2022-07-29T01:52:28.590Z,22.36
2022-07-29T01:55:11.874Z,22.69
2022-07-29T01:57:49.136Z,22.94
2022-07-29T02:00:19.988Z,23.08
2022-07-29T02:02:51.851Z,23.67
2022-07-29T02:05:25.112Z,23.12
2022-07-29T02:07:58.452Z,22.56
2022-07-29T02:10:33.721Z,22.87
2022-07-29T02:13:05.353Z,23.03
2022-07-29T02:15:36.611Z,23.17
2022-07-29T02:18:15.741Z,23.37
2022-07-29T02:20:50.889Z,23.54
2022-07-29T02:23:27.425Z,24.22
2022-07-29T02:26:00.163Z,24.48
2022-07-29T02:28:33.453Z,24.87
2022-07-29T02:31:05.551Z,24.91
2022-07-29T02:33:36.322Z,25.05
2022-07-29T02:36:06.473Z,25.45
2022-07-29T02:38:53.344Z,25.30
2022-07-29T02:41:51.418Z,25.32
2022-07-29T02:44:24.614Z,25.48
2022-07-29T02:47:22.715Z,25.53
2022-07-29T02:50:25.004Z,26.00
2022-07-29T02:53:26.124Z,26.21
2022-07-29T02:56:03.895Z,26.35
2022-07-29T02:58:52.064Z,26.57
2022-07-29T03:01:27.732Z,27.10
2022-07-29T03:03:58.074Z,27.55
2022-07-29T03:06:38.560Z,27.67
2022-07-29T03:09:13.712Z,28.33
2022-07-29T03:11:50.116Z,28.29
2022-07-29T03:14:23.131Z,27.80
2022-07-29T03:16:54.018Z,27.77
2022-07-29T03:19:23.670Z,28.26
2022-07-29T03:21:53.856Z,28.65
2022-07-29T03:24:36.335Z,28.17
2022-07-29T03:27:07.790Z,28.09
2022-07-29T03:29:37.261Z,28.03
2022-07-29T03:32:09.105Z,28.52
2022-07-29T03:34:40.056Z,28.63
2022-07-29T03:37:09.717Z,28.68
2022-07-29T03:39:43.831Z,28.76
2022-07-29T03:42:18.351Z,28.76
2022-07-29T03:44:51.412Z,28.80
2022-07-29T03:47:43.670Z,29.01
2022-07-29T03:50:21.321Z,29.75
2022-07-29T03:52:51.621Z,30.35
2022-07-29T03:55:20.991Z,30.69
2022-07-29T03:57:52.983Z,31.12
2022-07-29T04:00:22.446Z,31.24
2022-07-29T04:02:51.695Z,31.47
2022-07-29T04:05:24.546Z,31.60
2022-07-29T04:07:54.338Z,32.07
2022-07-29T04:10:30.604Z,32.32
2022-07-29T04:13:02.521Z,32.36
2022-07-29T04:15:32.129Z,32.67
2022-07-29T04:18:04.243Z,32.58
2022-07-29T04:20:33.881Z,32.04
2022-07-29T04:23:03.253Z,32.19
2022-07-29T04:25:32.648Z,32.25
2022-07-29T04:28:04.852Z,32.18
2022-07-29T04:30:36.220Z,32.36
2022-07-29T04:33:08.957Z,32.44
2022-07-29T04:35:45.791Z,32.54
2022-07-29T04:38:20.248Z,32.55
2022-07-29T04:40:49.607Z,32.70
2022-07-29T04:43:20.550Z,32.76
2022-07-29T04:45:52.391Z,32.76
2022-07-29T04:48:26.678Z,32.53
2022-07-29T04:50:58.716Z,32.65
2022-07-29T04:53:28.969Z,32.43
2022-07-29T04:55:58.591Z,32.74
2022-07-29T04:58:28.457Z,32.99
2022-07-29T05:01:00.398Z,33.12
2022-07-29T05:03:29.661Z,33.19
2022-07-29T05:05:58.909Z,33.45
2022-07-29T05:08:28.161Z,33.66
2022-07-29T05:10:57.687Z,33.56
2022-07-29T05:13:27.145Z,33.65
2022-07-29T05:16:15.347Z,33.88
2022-07-29T05:18:44.783Z,33.99
2022-07-29T05:21:14.511Z,34.01
2022-07-29T05:23:44.000Z,34.18
2022-07-29T05:26:14.052Z,34.42
2022-07-29T05:28:43.178Z,34.82
2022-07-29T05:31:12.796Z,35.11
2022-07-29T05:33:42.209Z,35.18
2022-07-29T05:36:11.541Z,35.22
2022-07-29T05:38:40.985Z,35.41
2022-07-29T05:41:10.407Z,35.56
2022-07-29T05:43:39.734Z,35.68
2022-07-29T05:46:09.084Z,35.72
2022-07-29T05:48:38.539Z,35.77
2022-07-29T05:51:08.206Z,36.10
2022-07-29T05:53:37.664Z,36.27
2022-07-29T05:56:08.114Z,36.51
2022-07-29T05:58:37.294Z,36.75
2022-07-29T06:01:07.012Z,36.79
2022-07-29T06:03:36.804Z,36.91
2022-07-29T06:06:08.134Z,37.08
2022-07-29T06:08:38.369Z,37.27
2022-07-29T06:11:08.296Z,37.21
2022-07-29T06:13:37.815Z,37.34
2022-07-29T06:16:07.463Z,37.42
2022-07-29T06:18:37.348Z,37.44
2022-07-29T06:21:11.882Z,37.63
2022-07-29T06:23:42.274Z,37.56
2022-07-29T06:26:11.533Z,37.73
2022-07-29T06:28:41.421Z,37.70
2022-07-29T06:31:11.253Z,37.71
2022-07-29T06:33:40.573Z,37.85
2022-07-29T06:36:10.470Z,37.82
2022-07-29T06:38:47.536Z,37.92
2022-07-29T06:41:20.530Z,38.22
2022-07-29T06:43:52.208Z,38.60
2022-07-29T06:46:25.045Z,38.91
2022-07-29T06:48:55.129Z,38.85
2022-07-29T06:51:26.194Z,38.85
2022-07-29T06:53:59.958Z,38.95
2022-07-29T06:56:40.378Z,39.06
2022-07-29T06:59:12.875Z,39.21
2022-07-29T07:01:44.787Z,39.56
2022-07-29T07:04:15.780Z,39.74
2022-07-29T07:06:46.549Z,39.82
2022-07-29T07:09:15.812Z,40.12
2022-07-29T07:11:49.638Z,40.40
2022-07-29T07:14:20.176Z,40.59
2022-07-29T07:16:52.483Z,40.69
2022-07-29T07:19:25.160Z,40.84
2022-07-29T07:21:55.770Z,40.96
2022-07-29T07:24:25.171Z,41.11
2022-07-29T07:26:54.578Z,41.27
2022-07-29T07:29:24.059Z,41.47
2022-07-29T07:31:56.342Z,41.83
2022-07-29T07:34:29.858Z,41.88
2022-07-29T07:36:59.135Z,42.17
2022-07-29T07:39:28.453Z,42.36
2022-07-29T07:41:58.771Z,42.59
2022-07-29T07:44:28.253Z,42.63
2022-07-29T07:46:57.396Z,42.79
2022-07-29T07:49:33.350Z,43.18
2022-07-29T07:52:05.038Z,43.40
2022-07-29T07:54:36.067Z,43.43
2022-07-29T07:57:05.584Z,43.70
2022-07-29T07:59:34.752Z,43.87
2022-07-29T08:02:04.576Z,44.17
2022-07-29T08:04:34.686Z,44.31
2022-07-29T08:07:05.033Z,44.54
2022-07-29T08:09:34.979Z,44.77
2022-07-29T08:12:05.942Z,44.97
2022-07-29T08:14:36.294Z,45.19
2022-07-29T08:17:06.060Z,45.52
2022-07-29T08:19:35.221Z,45.49
2022-07-29T08:22:04.533Z,45.77
2022-07-29T08:24:45.890Z,46.13
2022-07-29T08:27:41.743Z,46.37
2022-07-29T08:30:06.658Z,46.44
2022-07-29T08:32:53.145Z,46.86
2022-07-29T08:35:26.499Z,46.96
2022-07-29T08:37:56.733Z,47.19
2022-07-29T08:40:30.607Z,47.48
2022-07-29T08:43:08.987Z,47.70
2022-07-29T08:45:50.116Z,47.70
2022-07-29T08:48:22.717Z,47.74
2022-07-29T08:50:58.386Z,47.88
2022-07-29T08:53:31.398Z,48.12
2022-07-29T08:56:01.666Z,48.48
2022-07-29T08:58:38.191Z,48.88
2022-07-29T09:01:12.468Z,49.10
2022-07-29T09:03:45.930Z,49.35
2022-07-29T09:06:22.073Z,49.49
2022-07-29T09:08:51.654Z,49.63
2022-07-29T09:11:20.901Z,49.81
2022-07-29T09:13:51.705Z,49.98
2022-07-29T09:16:43.889Z,49.91
2022-07-29T09:19:31.262Z,50.02
2022-07-29T09:22:04.070Z,50.08
2022-07-29T09:24:49.440Z,50.17
2022-07-29T09:27:31.039Z,50.27
2022-07-29T09:30:12.874Z,50.35
2022-07-29T09:33:04.854Z,50.27
2022-07-29T09:35:34.311Z,50.01
2022-07-29T09:38:16.780Z,49.52
2022-07-29T09:41:06.711Z,49.22
2022-07-29T09:43:37.078Z,49.30
2022-07-29T09:46:17.399Z,49.45
2022-07-29T09:48:50.496Z,49.37
2022-07-29T09:51:28.304Z,49.38
2022-07-29T09:54:41.052Z,49.50
2022-07-29T09:57:28.560Z,49.47
2022-07-29T10:00:17.240Z,50.00
2022-07-29T10:02:50.933Z,50.48
2022-07-29T10:05:36.535Z,50.90
2022-07-29T10:08:07.310Z,50.91
2022-07-29T10:10:43.482Z,51.04
2022-07-29T10:13:17.387Z,51.26
2022-07-29T10:15:48.231Z,51.44
2022-07-29T10:18:21.577Z,51.40
2022-07-29T10:20:52.093Z,51.49
2022-07-29T10:23:22.067Z,51.46
2022-07-29T10:25:52.061Z,51.37
2022-07-29T10:28:21.530Z,51.16
2022-07-29T10:30:55.181Z,50.85
2022-07-29T10:34:10.315Z,50.62
2022-07-29T10:37:37.541Z,50.86
2022-07-29T10:41:32.404Z,51.21
2022-07-29T10:44:23.229Z,51.38
2022-07-29T10:46:55.522Z,51.47
2022-07-29T10:49:30.387Z,51.59
2022-07-29T10:52:11.567Z,51.57
2022-07-29T10:54:49.693Z,51.64
2022-07-29T10:57:26.015Z,51.82
2022-07-29T11:00:17.293Z,51.92
2022-07-29T11:02:50.757Z,52.00
2022-07-29T11:05:39.957Z,52.00
2022-07-29T11:08:20.116Z,51.92
2022-07-29T11:10:52.482Z,52.04
2022-07-29T11:13:48.954Z,52.05
2022-07-29T11:16:21.298Z,52.10
2022-07-29T11:19:26.631Z,52.12
2022-07-29T11:22:01.270Z,52.22
2022-07-29T11:24:34.858Z,52.21
2022-07-29T11:27:23.137Z,52.27
2022-07-29T11:29:56.319Z,52.30
2022-07-29T11:32:41.683Z,52.53
2022-07-29T11:35:18.637Z,52.89
2022-07-29T11:38:09.881Z,52.89
2022-07-29T11:40:40.316Z,53.46
2022-07-29T11:43:12.100Z,53.49
2022-07-29T11:45:52.868Z,53.59
2022-07-29T11:48:31.788Z,53.46
2022-07-29T11:51:03.095Z,53.45
2022-07-29T11:53:33.383Z,53.71
2022-07-29T11:56:04.147Z,53.77
2022-07-29T11:58:34.061Z,53.87
2022-07-29T12:01:05.578Z,53.98
2022-07-29T12:06:26.715Z,53.83
2022-07-29T12:08:56.065Z,53.87
2022-07-29T12:11:25.794Z,54.05
2022-07-29T12:13:55.696Z,54.12
2022-07-29T12:16:29.641Z,54.29
2022-07-29T12:19:05.326Z,54.41
2022-07-29T12:21:59.749Z,54.58
2022-07-29T12:24:46.321Z,54.63
2022-07-29T12:27:28.632Z,54.53
2022-07-29T12:30:03.341Z,54.48
2022-07-29T12:32:48.273Z,54.44
2022-07-29T12:35:23.208Z,54.41
2022-07-29T12:37:54.206Z,54.33
2022-07-29T12:40:25.675Z,54.23
2022-07-29T12:43:20.856Z,54.11
2022-07-29T12:45:53.609Z,54.01
2022-07-29T12:48:44.987Z,54.02
2022-07-29T12:51:16.510Z,54.03
2022-07-29T12:54:15.346Z,54.07
2022-07-29T12:56:47.113Z,54.02
2022-07-29T12:59:23.672Z,53.72
2022-07-29T13:01:55.255Z,53.45
2022-07-29T13:04:30.902Z,53.36
2022-07-29T13:07:10.517Z,53.13
2022-07-29T13:09:45.828Z,53.00
2022-07-29T13:12:16.940Z,52.78
2022-07-29T13:14:50.954Z,52.64
2022-07-29T13:17:25.012Z,52.40
2022-07-29T13:20:08.852Z,52.05
2022-07-29T13:22:38.365Z,51.89
2022-07-29T13:25:08.733Z,51.60
2022-07-29T13:27:46.702Z,51.52
2022-07-29T13:30:16.412Z,51.56
2022-07-29T13:32:45.605Z,51.59
2022-07-29T13:35:15.452Z,51.40
2022-07-29T13:37:45.180Z,51.22
2022-07-29T13:40:16.134Z,51.09
2022-07-29T13:42:45.848Z,51.02
2022-07-29T13:45:16.919Z,50.98
2022-07-29T13:47:49.449Z,50.97
2022-07-29T13:50:19.023Z,50.97
2022-07-29T13:52:50.294Z,51.10
2022-07-29T13:55:19.724Z,51.10
2022-07-29T13:57:49.955Z,51.30
2022-07-29T14:00:22.824Z,51.19
2022-07-29T14:02:52.474Z,51.42
2022-07-29T14:05:21.833Z,51.59
2022-07-29T14:07:51.129Z,51.59
2022-07-29T14:10:20.534Z,51.45
2022-07-29T14:12:49.776Z,51.27
2022-07-29T14:15:19.393Z,50.93
2022-07-29T14:17:48.547Z,50.77
2022-07-29T14:20:18.661Z,50.70
2022-07-29T14:22:48.037Z,50.65
2022-07-29T14:25:19.052Z,50.71
2022-07-29T14:27:50.610Z,50.50
2022-07-29T14:30:20.260Z,50.37
2022-07-29T14:32:49.890Z,50.39
2022-07-29T14:35:22.013Z,50.22
2022-07-29T14:37:51.418Z,50.09
2022-07-29T14:40:20.778Z,49.94
2022-07-29T14:42:50.044Z,50.12
2022-07-29T14:45:19.563Z,50.05
2022-07-29T14:47:48.960Z,49.90
2022-07-29T14:50:18.628Z,49.87
2022-07-29T14:52:59.514Z,49.91
2022-07-29T14:55:32.165Z,50.29
2022-07-29T14:58:09.684Z,49.97
2022-07-29T15:00:40.696Z,49.82
2022-07-29T15:03:12.904Z,49.69
2022-07-29T15:05:59.814Z,49.36
2022-07-29T15:08:32.234Z,49.03
2022-07-29T15:11:02.742Z,48.64
2022-07-29T15:13:32.168Z,48.51
2022-07-29T15:16:01.521Z,48.23
2022-07-29T15:18:30.847Z,47.82
2022-07-29T15:21:02.766Z,47.95
2022-07-29T15:23:32.148Z,48.08
2022-07-29T15:26:01.445Z,48.25
2022-07-29T15:28:30.842Z,48.30
2022-07-29T15:31:00.471Z,47.58
2022-07-29T15:33:29.854Z,47.09
2022-07-29T15:36:01.294Z,46.82
2022-07-29T15:38:30.734Z,46.77
2022-07-29T15:41:00.190Z,46.92
2022-07-29T15:43:31.011Z,46.49
2022-07-29T15:46:18.918Z,46.33
2022-07-29T15:48:48.635Z,45.94
2022-07-29T15:51:18.978Z,46.01
2022-07-29T15:53:53.548Z,45.93
2022-07-29T15:56:23.331Z,46.09
2022-07-29T15:58:53.374Z,45.69
2022-07-29T16:01:22.881Z,45.59
2022-07-29T16:03:52.417Z,45.23
2022-07-29T16:06:22.032Z,44.67
2022-07-29T16:08:51.401Z,44.36
2022-07-29T16:11:20.897Z,44.47
2022-07-29T16:13:50.060Z,44.04
2022-07-29T16:16:20.869Z,42.81
2022-07-29T16:18:50.201Z,42.25
2022-07-29T16:21:20.632Z,42.48
2022-07-29T16:23:49.949Z,42.19
2022-07-29T16:26:19.836Z,41.90
2022-07-29T16:28:49.108Z,41.78
2022-07-29T16:31:23.984Z,41.33
2022-07-29T16:33:55.864Z,41.20
2022-07-29T16:36:25.466Z,40.94
2022-07-29T16:38:54.723Z,40.76
2022-07-29T16:41:24.515Z,40.46
2022-07-29T16:43:54.033Z,40.44
2022-07-29T16:46:24.382Z,39.77
2022-07-29T16:48:55.203Z,39.94
2022-07-29T16:51:24.561Z,39.97
2022-07-29T16:53:53.681Z,38.39
2022-07-29T16:56:23.038Z,38.56
2022-07-29T16:58:52.300Z,38.87
2022-07-29T17:01:21.686Z,38.82
2022-07-29T17:04:09.959Z,38.45
2022-07-29T17:06:42.392Z,37.90
2022-07-29T17:09:17.770Z,37.42
2022-07-29T17:11:53.833Z,36.80
2022-07-29T17:14:30.779Z,36.75
2022-07-29T17:17:03.293Z,37.39
2022-07-29T17:19:36.883Z,37.52
2022-07-29T17:22:18.804Z,36.60
2022-07-29T17:24:49.966Z,36.95
2022-07-29T17:27:19.783Z,37.25
2022-07-29T17:29:49.932Z,36.56
2022-07-29T17:32:19.340Z,36.12
2022-07-29T17:34:48.316Z,35.25
2022-07-29T17:37:17.659Z,35.76
2022-07-29T17:39:47.295Z,36.00
2022-07-29T17:42:16.995Z,35.24
2022-07-29T17:44:46.602Z,35.08
2022-07-29T17:47:16.678Z,34.57
2022-07-29T17:49:47.116Z,34.70
2022-07-29T17:52:18.995Z,35.34
2022-07-29T17:54:50.466Z,34.77
2022-07-29T17:57:19.981Z,34.27
2022-07-29T17:59:49.169Z,34.19
2022-07-29T18:02:19.370Z,33.89
2022-07-29T18:04:50.576Z,33.95
2022-07-29T18:07:20.551Z,33.85
2022-07-29T18:09:49.871Z,33.68
2022-07-29T18:12:19.055Z,33.06
2022-07-29T18:14:48.308Z,32.50
2022-07-29T18:17:17.414Z,32.22
2022-07-29T18:19:46.698Z,33.64
2022-07-29T18:22:16.409Z,32.44
2022-07-29T18:24:45.739Z,31.82
2022-07-29T18:27:15.043Z,31.47
2022-07-29T18:29:46.152Z,31.16
2022-07-29T18:32:28.832Z,30.26
2022-07-29T18:34:59.231Z,29.99
2022-07-29T18:38:00.702Z,30.38
2022-07-29T18:40:18.332Z,29.61
2022-07-29T18:42:48.780Z,29.06
2022-07-29T18:45:19.143Z,29.09
2022-07-29T18:47:50.583Z,28.45
2022-07-29T18:50:20.713Z,28.34
2022-07-29T18:52:50.736Z,28.36
2022-07-29T18:55:20.316Z,28.03
2022-07-29T18:57:54.987Z,28.20
2022-07-29T19:00:27.274Z,26.64
2022-07-29T19:02:57.995Z,27.05
2022-07-29T19:05:27.355Z,26.45
2022-07-29T19:07:57.257Z,27.00
2022-07-29T19:10:26.853Z,26.12
2022-07-29T19:12:57.974Z,26.58
2022-07-29T19:15:27.933Z,26.34
2022-07-29T19:18:00.991Z,25.66
2022-07-29T19:20:31.273Z,26.38
2022-07-29T19:23:01.336Z,26.02
2022-07-29T19:25:30.521Z,24.76
2022-07-29T19:27:59.819Z,24.74
2022-07-29T19:30:29.093Z,24.92
2022-07-29T19:32:58.913Z,24.82
2022-07-29T19:35:34.080Z,24.49
2022-07-29T19:38:04.086Z,24.39
2022-07-29T19:40:33.475Z,24.34
2022-07-29T19:43:02.977Z,23.70
2022-07-29T19:45:52.499Z,23.43
2022-07-29T19:48:21.800Z,24.01
2022-07-29T19:50:50.991Z,24.22
2022-07-29T19:53:25.268Z,23.41
2022-07-29T19:55:54.788Z,23.09
2022-07-29T19:58:26.952Z,23.11
2022-07-29T20:00:56.373Z,22.97
2022-07-29T20:03:25.541Z,23.61
2022-07-29T20:05:55.058Z,22.98
2022-07-29T20:08:24.567Z,23.72
2022-07-29T20:10:55.790Z,23.62
2022-07-29T20:13:25.993Z,23.56
2022-07-29T20:15:55.541Z,23.33
2022-07-29T20:18:24.940Z,22.54
2022-07-29T20:20:55.024Z,22.29
2022-07-29T20:23:24.412Z,22.59
2022-07-29T20:25:54.149Z,22.70
2022-07-29T20:28:24.878Z,23.09
2022-07-29T20:30:54.380Z,22.57
2022-07-29T20:33:23.965Z,22.53
2022-07-29T20:35:53.737Z,22.61
2022-07-29T20:38:22.940Z,22.44
2022-07-29T20:40:54.011Z,22.01
2022-07-29T20:43:23.927Z,22.11
2022-07-29T20:45:53.895Z,22.15
2022-07-29T20:48:24.032Z,22.40
2022-07-29T20:50:55.982Z,22.20
2022-07-29T20:53:25.298Z,21.81
2022-07-29T20:55:55.000Z,21.48
2022-07-29T20:58:24.354Z,22.14
2022-07-29T21:00:53.758Z,21.76
2022-07-29T21:03:23.644Z,21.18
2022-07-29T21:05:53.447Z,20.51
2022-07-29T21:08:22.752Z,20.41
2022-07-29T21:10:52.362Z,20.43
2022-07-29T21:13:23.487Z,20.52
2022-07-29T21:15:53.495Z,20.68
2022-07-29T21:18:34.600Z,20.84
2022-07-29T21:21:04.700Z,20.85
2022-07-29T21:23:34.094Z,20.87
2022-07-29T21:26:03.764Z,21.06
2022-07-29T21:28:42.920Z,21.05
2022-07-29T21:31:16.105Z,21.58
2022-07-29T21:33:48.391Z,21.59
2022-07-29T21:39:10.749Z,22.02
2022-07-29T21:41:40.039Z,21.84
2022-07-29T21:44:09.579Z,21.82
2022-07-29T21:46:38.983Z,21.80
2022-07-29T21:49:08.579Z,21.64
2022-07-29T21:51:37.961Z,22.25
2022-07-29T21:54:07.568Z,23.30
2022-07-29T21:56:37.918Z,23.85
2022-07-29T21:59:09.621Z,24.37
2022-07-29T22:01:39.854Z,24.48
2022-07-29T22:04:09.448Z,24.63
2022-07-29T22:06:39.028Z,25.77
2022-07-29T22:09:09.725Z,28.09
2022-07-29T22:11:40.691Z,29.40
2022-07-29T22:14:10.065Z,30.53
2022-07-29T22:16:39.447Z,31.41
2022-07-29T22:19:08.814Z,31.24
2022-07-29T22:21:38.427Z,30.52
2022-07-29T22:24:09.230Z,28.35
2022-07-29T22:26:39.575Z,26.58
2022-07-29T22:29:08.918Z,26.34
2022-07-29T22:31:38.170Z,25.89
2022-07-29T22:34:13.054Z,25.66
2022-07-29T22:36:42.621Z,26.19
2022-07-29T22:39:11.846Z,27.88
2022-07-29T22:41:45.354Z,30.71
2022-07-29T22:44:14.607Z,31.35
2022-07-29T22:46:43.862Z,32.65
2022-07-29T22:49:13.403Z,32.83
2022-07-29T22:51:42.926Z,31.85
2022-07-29T22:54:12.954Z,31.80
2022-07-29T22:56:42.441Z,32.34
2022-07-29T22:59:13.168Z,32.16
2022-07-29T23:01:42.734Z,32.11
2022-07-29T23:04:11.975Z,31.95
2022-07-29T23:06:41.398Z,32.31
2022-07-29T23:09:10.667Z,32.73
2022-07-29T23:11:40.361Z,33.99
2022-07-29T23:14:09.726Z,34.83
2022-07-29T23:16:39.109Z,35.74
2022-07-29T23:19:08.352Z,36.88
2022-07-29T23:21:38.170Z,37.91
2022-07-29T23:24:07.650Z,38.73
2022-07-29T23:26:37.948Z,40.48
2022-07-29T23:29:07.309Z,41.36
2022-07-29T23:31:41.813Z,41.84
2022-07-29T23:34:17.521Z,41.18
2022-07-29T23:36:47.516Z,40.61
2022-07-29T23:39:16.942Z,40.28
2022-07-29T23:41:46.223Z,39.42
2022-07-29T23:44:15.671Z,38.30
2022-07-29T23:46:45.852Z,38.25
2022-07-29T23:49:15.846Z,38.82
2022-07-29T23:51:45.333Z,38.83
2022-07-29T23:54:15.301Z,38.97
2022-07-29T23:56:44.720Z,39.34
2022-07-29T23:59:15.998Z,39.35
